Time;durP1;ratioP1;P1;durP2;ratioP2;P2;SDS_P1;SDS_P2;PMS_P1;PMS_P2;Temp;Humidity;BMP_temperature;BMP_pressure;BME280_temperature;BME280_humidity;BME280_pressure;Samples;Min_cycle;Max_cycle;Signal;HPM_P1;HPM_P2
2021/12/24 01:25:24;;;;;;;9.47;6.90;;;;;;;;;;5104092;27;20565;-84
2021/12/24 01:38:54;;;;;;;20.13;8.00;;;;;;;;;;5095610;28;20445;-84
2021/12/24 01:42:40;;;;;;;14.33;6.67;;;;;;;;;;5094525;28;20396;-84
2021/12/24 01:44:07;;;;;;;14.73;6.97;;;;;;;;;;5095113;28;20504;-84
2021/12/24 01:46:33;;;;;;;11.00;6.33;;;;;;;;;;5095106;28;20778;-84
2021/12/24 01:48:59;;;;;;;6.83;5.83;;;;;;;;;;5095155;28;20413;-85
2021/12/24 01:51:25;;;;;;;10.10;6.10;;;;;;;;;;5095387;28;20916;-84
2021/12/24 01:53:51;;;;;;;7.70;4.93;;;;;;;;;;5096626;28;20442;-84
2021/12/24 01:56:17;;;;;;;7.33;5.63;;;;;;;;;;5093263;28;20421;-84
2021/12/24 01:58:43;;;;;;;13.73;6.47;;;;;;;;;;5097313;28;20486;-84
2021/12/24 02:01:08;;;;;;;7.17;5.70;;;;;;;;;;5094300;28;20892;-84
2021/12/24 02:03:34;;;;;;;10.23;5.90;;;;;;;;;;5096829;28;20542;-84
2021/12/24 02:06:00;;;;;;;6.87;6.00;;;;;;;;;;5095262;28;20482;-84
2021/12/24 02:08:26;;;;;;;7.53;6.70;;;;;;;;;;5093257;28;20400;-84
2021/12/24 02:10:52;;;;;;;12.43;5.93;;;;;;;;;;5092922;28;20491;-83
2021/12/24 02:13:18;;;;;;;10.00;5.43;;;;;;;;;;5095681;28;20495;-83
2021/12/24 02:16:04;;;;;;;6.93;6.23;;;;;;;;;;5095781;28;20443;-83
2021/12/24 02:29:38;;;;;;;6.20;5.60;;;;;;;;;;5092408;28;20420;-84
2021/12/24 02:32:05;;;;;;;13.07;6.57;;;;;;;;;;5093074;28;20515;-83
2021/12/24 02:34:31;;;;;;;11.43;6.50;;;;;;;;;;5091491;28;20406;-84
2021/12/24 02:36:57;;;;;;;7.13;6.07;;;;;;;;;;5080502;28;20409;-84
2021/12/24 02:39:23;;;;;;;8.97;5.90;;;;;;;;;;5081206;28;20571;-84
2021/12/24 02:41:49;;;;;;;13.93;10.70;;;;;;;;;;5081942;28;20429;-84
2021/12/24 02:44:15;;;;;;;6.57;5.80;;;;;;;;;;5078549;28;20994;-84
2021/12/24 02:53:56;;;;;;;8.47;5.40;;;;;;;;;;5079712;28;20486;-84
2021/12/24 02:55:12;;;;;;;7.83;5.73;;;;;;;;;;5080859;28;20455;-84
2021/12/24 02:57:39;;;;;;;5.90;5.40;;;;;;;;;;5076246;28;20540;-84
2021/12/24 03:00:12;;;;;;;6.23;5.63;;;;;;;;;;5080538;28;20412;-84
2021/12/24 03:02:39;;;;;;;6.23;5.63;;;;;;;;;;5081293;28;21074;-84
2021/12/24 03:05:06;;;;;;;10.00;5.70;;;;;;;;;;5081225;28;20501;-83
2021/12/24 03:07:32;;;;;;;7.33;6.20;;;;;;;;;;5078180;28;20426;-83
2021/12/24 03:09:59;;;;;;;10.13;5.53;;;;;;;;;;5082464;28;20571;-84
2021/12/24 03:12:25;;;;;;;6.33;5.23;;;;;;;;;;5080191;28;20405;-84
2021/12/24 03:14:52;;;;;;;10.33;6.07;;;;;;;;;;5077938;28;20457;-84
2021/12/24 03:17:22;;;;;;;6.07;5.43;;;;;;;;;;5081112;28;20877;-83
2021/12/24 03:19:48;;;;;;;12.03;6.90;;;;;;;;;;5079614;28;20790;-84
2021/12/24 03:22:34;;;;;;;10.47;6.50;;;;;;;;;;5077806;28;20405;-84
2021/12/24 03:25:00;;;;;;;8.40;5.80;;;;;;;;;;5077719;28;20425;-84
2021/12/24 03:27:26;;;;;;;9.70;6.73;;;;;;;;;;5079941;28;20405;-84
2021/12/24 03:29:52;;;;;;;11.00;7.10;;;;;;;;;;5079806;28;20425;-84
2021/12/24 03:32:18;;;;;;;14.37;5.83;;;;;;;;;;5079163;28;20504;-84
2021/12/24 03:34:44;;;;;;;6.83;6.03;;;;;;;;;;5080028;28;20508;-84
2021/12/24 03:37:10;;;;;;;13.20;6.00;;;;;;;;;;5079618;28;20441;-83
2021/12/24 03:39:37;;;;;;;10.27;7.27;;;;;;;;;;5076267;28;20406;-84
2021/12/24 03:42:04;;;;;;;14.90;5.73;;;;;;;;;;5080135;28;20807;-83
2021/12/24 03:44:35;;;;;;;14.20;6.37;;;;;;;;;;5080687;28;20449;-83
2021/12/24 03:47:10;;;;;;;7.63;5.97;;;;;;;;;;5074834;28;20414;-83
2021/12/24 03:52:19;;;;;;;8.13;6.23;;;;;;;;;;5079853;28;20487;-83
2021/12/24 03:54:57;;;;;;;6.73;6.03;;;;;;;;;;5079524;28;20429;-83
2021/12/24 03:57:38;;;;;;;6.07;5.57;;;8.70;93.10;;;;;;5077995;28;20424;-83
2021/12/24 04:00:15;;;;;;;11.13;6.03;;;8.70;91.60;;;;;;5078232;28;20916;-83
2021/12/24 04:02:41;;;;;;;8.10;5.93;;;;;;;;;;5075918;28;20421;-84
2021/12/24 04:05:08;;;;;;;9.17;6.17;;;;;;;;;;5078815;28;20709;-84
2021/12/24 04:07:34;;;;;;;6.20;5.60;;;;;;;;;;5080566;28;20489;-84
2021/12/24 04:10:07;;;;;;;6.50;5.80;;;;;;;;;;5078952;28;20513;-84
2021/12/24 04:12:34;;;;;;;7.73;6.23;;;;;;;;;;5078830;28;20406;-84
2021/12/24 04:15:01;;;;;;;12.43;7.43;;;;;;;;;;5078244;28;20489;-84
2021/12/24 04:17:31;;;;;;;6.27;5.73;;;;;;;;;;5078228;28;20407;-83
2021/12/24 04:25:28;;;;;;;13.23;9.57;;;;;;;;;;5076024;28;20495;-83
2021/12/24 04:27:57;;;;;;;9.10;8.33;;;;;;;;;;5075494;28;20782;-83
2021/12/24 04:30:28;;;;;;;23.30;13.93;;;;;;;;;;5079211;28;20428;-83
2021/12/24 04:51:15;;;;;;;19.80;16.07;;;;;;;;;;5078001;28;20448;-83
2021/12/24 05:04:49;;;;;;;37.10;27.70;;;;;;;;;;5075524;28;20472;-84
2021/12/24 05:10:00;;;;;;;26.00;20.20;;;;;;;;;;5072284;28;20774;-84
2021/12/24 05:12:26;;;;;;;23.30;20.53;;;;;;;;;;5069381;28;20406;-84
2021/12/24 05:14:52;;;;;;;34.03;29.93;;;;;;;;;;5068138;28;20528;-84
2021/12/24 05:22:30;;;;;;;27.87;23.33;;;;;;;;;;5076635;28;20429;-83
2021/12/24 05:24:57;;;;;;;27.40;23.27;;;;;;;;;;5074697;28;20499;-83
2021/12/24 05:27:23;;;;;;;29.73;22.60;;;;;;;;;;5078463;28;20471;-84
2021/12/24 05:29:49;;;;;;;26.57;22.40;;;;;;;;;;5076194;28;21152;-83
2021/12/24 05:32:15;;;;;;;42.57;34.77;;;;;;;;;;5077601;28;20468;-83
2021/12/24 05:34:41;;;;;;;116.20;64.03;;;;;;;;;;5077019;28;20441;-84
2021/12/24 05:37:07;;;;;;;39.93;26.27;;;;;;;;;;5076883;28;20519;-83
2021/12/24 05:39:34;;;;;;;182.13;82.03;;;;;;;;;;5077581;28;20416;-83
2021/12/24 05:42:00;;;;;;;59.40;40.47;;;;;;;;;;5078027;28;20417;-83
2021/12/24 05:44:26;;;;;;;64.60;41.83;;;;;;;;;;5069505;28;20453;-84
2021/12/24 05:46:52;;;;;;;25.87;19.20;;;;;;;;;;5069218;28;20428;-84
2021/12/24 05:49:18;;;;;;;25.50;19.00;;;;;;;;;;5069144;28;20401;-84
2021/12/24 05:51:44;;;;;;;39.53;28.33;;;;;;;;;;5069053;28;20437;-84
2021/12/24 05:54:11;;;;;;;37.57;28.27;;;;;;;;;;5069136;28;20496;-84
2021/12/24 05:56:37;;;;;;;195.67;76.03;;;;;;;;;;5068895;28;20951;-84
2021/12/24 14:08:53;;;;;;;8.33;7.07;;;;;;;;;;5107421;27;20549;-85
2021/12/24 14:11:20;;;;;;;7.37;6.67;;;;;;;;;;5107122;28;20412;-80
2021/12/24 14:13:53;;;;;;;11.53;7.30;;;8.60;99.90;;;;;;5107120;28;20980;-80
2021/12/24 14:18:55;;;;;;;16.07;9.40;;;;;;;;;;5107055;28;20465;-80
2021/12/24 14:24:13;;;;;;;12.20;8.20;;;8.40;99.40;;;;;;5106884;28;20400;-79
2021/12/24 14:26:45;;;;;;;12.53;8.03;;;10.60;99.90;;;;;;5105281;28;20927;-79
2021/12/24 14:29:12;;;;;;;11.00;7.40;;;;;;;;;;5106787;28;20783;-79
2021/12/24 14:31:55;;;;;;;16.20;7.30;;;8.70;99.90;;;;;;5106795;28;20773;-79
2021/12/24 14:34:35;;;;;;;13.73;7.23;;;8.50;99.60;;;;;;5105482;28;20436;-78
2021/12/24 14:37:15;;;;;;;11.53;6.77;;;8.40;99.60;;;;;;5106696;28;20530;-80
2021/12/24 14:39:45;;;;;;;14.80;7.43;;;8.50;99.90;;;;;;5105540;28;20503;-79
2021/12/24 14:42:24;;;;;;;9.23;7.53;;;8.50;99.90;;;;;;5106763;28;20434;-79
2021/12/24 14:44:54;;;;;;;13.13;8.63;;;8.50;99.90;;;;;;5105360;28;20846;-78
2021/12/24 14:47:25;;;;;;;10.73;8.60;;;9.80;99.90;;;;;;5106745;28;20460;-80
2021/12/24 14:49:58;;;;;;;12.73;8.40;;;;;;;;;;5105453;28;20783;-81
2021/12/24 14:52:25;;;;;;;9.10;8.20;;;8.50;99.90;;;;;;5105218;28;20782;-81
2021/12/24 14:55:11;;;;;;;14.63;9.27;;;8.50;99.90;;;;;;5106684;28;20442;-80
2021/12/24 14:57:54;;;;;;;16.90;9.80;;;8.40;99.90;;;;;;5113712;28;20418;-82
2021/12/24 15:00:29;;;;;;;13.67;10.10;;;8.40;99.90;;;;;;5127194;27;20414;-82
2021/12/24 15:02:56;;;;;;;13.90;9.57;;;;;;;;;;5127067;27;20467;-78
2021/12/24 15:05:30;;;;;;;11.03;9.00;;;8.40;99.90;;;;;;5125508;28;21043;-79
2021/12/24 15:07:58;;;;;;;14.23;9.27;;;8.50;99.90;;;;;;5126602;27;20808;-82
2021/12/24 15:10:24;;;;;;;15.27;9.83;;;8.40;99.90;;;;;;5126903;27;20484;-80
2021/12/24 15:12:59;;;;;;;16.27;8.67;;;8.40;99.90;;;;;;5126795;27;20422;-85
